createdAt,value
2023-01-21T00:01:15.502Z,39.23
2023-01-21T00:03:43.408Z,37.97
2023-01-21T00:06:12.300Z,39.10
2023-01-21T00:08:39.653Z,39.13
2023-01-21T00:11:07.813Z,36.60
2023-01-21T00:13:36.304Z,40.90
2023-01-21T00:16:05.189Z,37.57
2023-01-21T00:18:33.248Z,38.30
2023-01-21T00:21:00.611Z,35.00
2023-01-21T00:23:28.163Z,38.53
2023-01-21T00:26:04.393Z,40.23
2023-01-21T00:28:33.545Z,38.43
2023-01-21T00:31:02.731Z,36.77
2023-01-21T00:33:31.007Z,36.13
2023-01-21T00:36:02.161Z,35.40
2023-01-21T00:38:30.152Z,35.10
2023-01-21T00:41:04.953Z,33.80
2023-01-21T00:43:32.651Z,33.40
2023-01-21T00:46:00.155Z,31.80
2023-01-21T00:48:28.796Z,31.00
2023-01-21T00:50:59.373Z,30.60
2023-01-21T00:53:32.769Z,32.07
2023-01-21T00:56:06.033Z,31.47
2023-01-21T00:58:34.126Z,33.23
2023-01-21T01:01:07.686Z,31.40
2023-01-21T01:03:36.065Z,31.10
2023-01-21T01:06:07.222Z,31.53
2023-01-21T01:08:34.688Z,28.57
2023-01-21T01:11:02.804Z,31.03
2023-01-21T01:13:30.735Z,29.50
2023-01-21T01:15:58.922Z,31.70
2023-01-21T01:18:27.478Z,28.67
2023-01-21T01:20:54.676Z,31.17
2023-01-21T01:23:22.039Z,27.87
2023-01-21T01:26:03.975Z,27.97
2023-01-21T01:28:32.509Z,31.27
2023-01-21T01:31:00.537Z,28.73
2023-01-21T01:33:28.729Z,29.60
2023-01-21T01:35:55.976Z,28.90
2023-01-21T01:38:23.907Z,27.03
2023-01-21T01:40:52.772Z,29.63
2023-01-21T01:43:23.774Z,29.73
2023-01-21T01:45:51.479Z,28.43
2023-01-21T01:48:28.895Z,28.33
2023-01-21T01:51:03.579Z,28.83
2023-01-21T01:53:32.448Z,27.83
2023-01-21T01:56:00.628Z,27.33
2023-01-21T01:58:29.454Z,25.40
2023-01-21T02:00:57.080Z,28.47
2023-01-21T02:03:44.034Z,27.20
2023-01-21T02:06:15.586Z,26.20
2023-01-21T02:08:45.050Z,26.10
2023-01-21T02:11:17.244Z,27.90
2023-01-21T02:13:51.447Z,27.90
2023-01-21T02:16:18.744Z,28.93
2023-01-21T02:19:04.077Z,27.53
2023-01-21T02:22:12.288Z,28.27
2023-01-21T02:25:03.702Z,27.07
2023-01-21T02:27:51.874Z,28.60
2023-01-21T02:30:33.996Z,29.47
2023-01-21T02:33:41.303Z,27.57
2023-01-21T02:36:31.898Z,28.87
2023-01-21T02:39:26.046Z,26.80
2023-01-21T02:42:05.619Z,27.17
2023-01-21T02:44:43.187Z,27.67
2023-01-21T02:47:34.182Z,28.40
2023-01-21T02:50:07.689Z,26.17
2023-01-21T02:52:35.263Z,25.67
2023-01-21T02:55:03.817Z,26.97
2023-01-21T02:57:40.002Z,26.43
2023-01-21T03:00:34.075Z,29.03
2023-01-21T03:03:16.145Z,27.40
2023-01-21T03:06:13.953Z,27.20
2023-01-21T03:08:54.447Z,28.07
2023-01-21T03:11:23.303Z,26.77
2023-01-21T03:14:24.041Z,25.40
2023-01-21T03:17:02.144Z,26.67
2023-01-21T03:19:44.507Z,26.13
2023-01-21T03:22:19.888Z,27.43
2023-01-21T03:24:51.274Z,28.43
2023-01-21T03:27:22.817Z,25.93
2023-01-21T03:29:54.615Z,26.73
2023-01-21T03:32:23.853Z,28.00
2023-01-21T03:34:53.849Z,27.47
2023-01-21T03:37:36.591Z,27.63
2023-01-21T03:40:16.565Z,26.77
2023-01-21T03:42:45.943Z,28.53
2023-01-21T03:45:14.377Z,27.70
2023-01-21T03:47:43.819Z,28.67
2023-01-21T03:50:27.907Z,29.70
2023-01-21T03:52:55.463Z,28.00
2023-01-21T03:55:22.829Z,26.20
2023-01-21T03:57:50.123Z,27.50
2023-01-21T04:00:18.409Z,28.80
2023-01-21T04:02:45.795Z,27.30
2023-01-21T04:05:14.404Z,26.57
2023-01-21T04:07:42.132Z,26.70
2023-01-21T04:10:10.313Z,26.87
2023-01-21T04:12:37.501Z,26.63
2023-01-21T04:15:05.639Z,28.03
2023-01-21T04:17:33.114Z,25.50
2023-01-21T04:20:00.243Z,25.93
2023-01-21T04:22:27.482Z,25.33
2023-01-21T04:24:54.659Z,27.80
2023-01-21T04:27:21.801Z,26.70
2023-01-21T04:29:48.992Z,26.73
2023-01-21T04:32:16.233Z,27.07
2023-01-21T04:34:43.380Z,26.23
2023-01-21T04:37:10.720Z,27.43
2023-01-21T04:39:38.003Z,23.97
2023-01-21T04:42:05.531Z,26.60
2023-01-21T04:44:32.977Z,24.73
2023-01-21T04:47:00.533Z,25.10
2023-01-21T04:49:27.680Z,25.77
2023-01-21T04:51:54.961Z,24.93
2023-01-21T04:54:23.081Z,25.60
2023-01-21T04:56:50.226Z,25.27
2023-01-21T04:59:17.414Z,24.67
2023-01-21T05:01:44.729Z,24.73
2023-01-21T05:04:11.933Z,23.03
2023-01-21T05:06:39.084Z,24.97
2023-01-21T05:09:06.338Z,24.07
2023-01-21T05:11:33.437Z,23.80
2023-01-21T05:14:00.525Z,23.87
2023-01-21T05:16:27.763Z,22.30
2023-01-21T05:18:54.886Z,23.40
2023-01-21T05:21:22.240Z,23.57
2023-01-21T05:23:49.443Z,24.73
2023-01-21T05:26:16.875Z,23.87
2023-01-21T05:28:44.096Z,23.57
2023-01-21T05:31:11.439Z,23.30
2023-01-21T05:33:38.706Z,23.33
2023-01-21T05:36:06.425Z,22.93
2023-01-21T05:38:33.579Z,24.90
2023-01-21T05:41:02.613Z,22.10
2023-01-21T05:43:30.179Z,22.63
2023-01-21T05:45:57.799Z,23.30
2023-01-21T05:48:25.120Z,22.83
2023-01-21T05:50:52.479Z,24.03
2023-01-21T05:53:19.923Z,23.57
2023-01-21T05:55:47.189Z,25.27
2023-01-21T05:58:14.624Z,23.17
2023-01-21T06:00:42.253Z,22.13
2023-01-21T06:03:09.520Z,22.03
2023-01-21T06:05:37.007Z,23.80
2023-01-21T06:08:04.273Z,22.70
2023-01-21T06:10:31.461Z,22.97
2023-01-21T06:12:58.699Z,22.23
2023-01-21T06:15:28.763Z,22.77
2023-01-21T06:17:56.620Z,22.67
2023-01-21T06:20:23.997Z,22.23
2023-01-21T06:22:51.215Z,22.70
2023-01-21T06:25:18.365Z,23.27
2023-01-21T06:27:45.510Z,24.00
2023-01-21T06:30:12.944Z,23.07
2023-01-21T06:32:40.251Z,22.13
2023-01-21T06:35:08.321Z,22.60
2023-01-21T06:37:35.668Z,23.63
2023-01-21T06:40:02.944Z,24.07
2023-01-21T06:42:30.156Z,24.43
2023-01-21T06:44:57.531Z,25.60
2023-01-21T06:47:24.939Z,23.83
2023-01-21T06:49:52.114Z,24.93
2023-01-21T06:52:19.306Z,23.50
2023-01-21T06:54:46.887Z,23.50
2023-01-21T06:57:14.473Z,40.40
2023-01-21T06:59:41.590Z,69.73
2023-01-21T07:02:12.442Z,40.00
2023-01-21T07:04:39.704Z,53.43
2023-01-21T07:07:06.862Z,83.50
2023-01-21T07:09:36.791Z,119.93
2023-01-21T07:12:03.984Z,95.97
2023-01-21T07:14:31.485Z,62.57
2023-01-21T07:16:58.640Z,152.93
2023-01-21T07:19:25.752Z,109.53
2023-01-21T07:21:54.304Z,157.47
2023-01-21T07:24:21.738Z,125.40
2023-01-21T07:26:49.251Z,88.73
2023-01-21T07:29:16.507Z,66.23
2023-01-21T07:31:44.203Z,42.33
2023-01-21T07:34:11.615Z,36.93
2023-01-21T07:36:38.843Z,27.33
2023-01-21T07:39:06.119Z,28.63
2023-01-21T07:41:33.614Z,24.90
2023-01-21T07:44:00.892Z,24.10
2023-01-21T07:46:28.286Z,30.03
2023-01-21T07:48:56.006Z,22.83
2023-01-21T07:51:23.479Z,25.87
2023-01-21T07:53:51.082Z,25.63
2023-01-21T07:56:18.795Z,25.70
2023-01-21T07:58:47.397Z,26.97
2023-01-21T08:01:14.619Z,24.07
2023-01-21T08:03:41.772Z,25.17
2023-01-21T08:06:11.677Z,22.27
2023-01-21T08:08:39.087Z,23.77
2023-01-21T08:11:06.528Z,23.13
2023-01-21T08:13:33.717Z,22.83
2023-01-21T08:16:01.180Z,21.83
2023-01-21T08:18:28.456Z,22.60
2023-01-21T08:20:57.345Z,21.80
2023-01-21T08:23:26.071Z,20.90
2023-01-21T08:25:53.722Z,23.47
2023-01-21T08:28:22.539Z,20.70
2023-01-21T08:30:50.004Z,22.47
2023-01-21T08:33:17.351Z,21.93
2023-01-21T08:35:44.540Z,23.73
2023-01-21T08:38:11.830Z,21.73
2023-01-21T08:40:39.224Z,20.33
2023-01-21T08:43:09.413Z,22.10
2023-01-21T08:45:36.854Z,21.97
2023-01-21T08:48:04.598Z,22.37
2023-01-21T08:50:31.912Z,21.77
2023-01-21T08:52:59.271Z,34.73
2023-01-21T08:55:27.184Z,28.50
2023-01-21T08:57:56.541Z,22.00
2023-01-21T09:00:24.267Z,21.53
2023-01-21T09:02:52.363Z,22.33
2023-01-21T09:05:21.350Z,21.97
2023-01-21T09:07:48.607Z,20.93
2023-01-21T09:10:37.565Z,20.60
2023-01-21T09:13:09.048Z,19.07
2023-01-21T09:15:40.740Z,18.57
2023-01-21T09:18:08.543Z,18.87
2023-01-21T09:20:38.798Z,19.40
2023-01-21T09:23:24.684Z,17.80
2023-01-21T09:25:51.989Z,15.43
2023-01-21T09:28:20.746Z,16.80
2023-01-21T09:30:48.386Z,17.70
2023-01-21T09:33:16.434Z,15.60
2023-01-21T09:35:45.791Z,16.87
2023-01-21T09:38:13.239Z,16.53
2023-01-21T09:40:45.359Z,15.30
2023-01-21T09:43:29.187Z,14.57
2023-01-21T09:46:01.661Z,15.93
2023-01-21T09:48:45.600Z,17.30
2023-01-21T09:52:01.879Z,15.33
2023-01-21T09:54:32.314Z,16.50
2023-01-21T09:57:33.328Z,15.60
2023-01-21T10:00:19.307Z,18.13
2023-01-21T10:02:59.294Z,16.40
2023-01-21T10:05:50.525Z,14.73
2023-01-21T10:08:24.430Z,14.80
2023-01-21T10:11:11.512Z,14.83
2023-01-21T10:13:46.114Z,13.50
2023-01-21T10:16:27.971Z,15.37
2023-01-21T10:18:58.577Z,13.70
2023-01-21T10:21:52.052Z,13.27
2023-01-21T10:24:26.123Z,15.07
2023-01-21T10:26:54.634Z,15.47
2023-01-21T10:29:25.269Z,13.50
2023-01-21T10:32:01.927Z,13.43
2023-01-21T10:34:35.399Z,13.73
2023-01-21T10:37:21.325Z,13.80
2023-01-21T10:39:56.614Z,16.03
2023-01-21T10:42:48.277Z,15.10
2023-01-21T10:45:30.982Z,12.73
2023-01-21T10:48:24.879Z,13.27
2023-01-21T10:51:06.345Z,12.20
2023-01-21T10:53:47.315Z,12.97
2023-01-21T10:56:32.345Z,13.70
2023-01-21T10:59:10.623Z,14.07
2023-01-21T11:01:45.128Z,13.57
2023-01-21T11:04:22.462Z,12.30
2023-01-21T11:06:58.532Z,12.90
2023-01-21T11:09:29.829Z,12.77
2023-01-21T11:11:57.080Z,13.17
2023-01-21T11:14:28.356Z,13.17
2023-01-21T11:16:56.816Z,12.77
2023-01-21T11:19:28.124Z,12.10
2023-01-21T11:22:06.422Z,13.00
2023-01-21T11:24:44.748Z,13.93
2023-01-21T11:27:23.352Z,13.30
2023-01-21T11:29:51.215Z,14.70
2023-01-21T11:32:38.808Z,15.93
2023-01-21T11:35:13.428Z,13.73
2023-01-21T11:37:44.729Z,14.40
2023-01-21T11:40:32.286Z,13.37
2023-01-21T11:42:59.506Z,13.37
2023-01-21T11:45:37.124Z,14.43
2023-01-21T11:48:40.529Z,13.40
2023-01-21T11:51:08.039Z,13.43
2023-01-21T11:53:35.435Z,13.00
2023-01-21T11:56:03.823Z,13.03
2023-01-21T11:58:37.168Z,12.93
2023-01-21T12:01:20.772Z,13.57
2023-01-21T12:03:56.815Z,68.47
2023-01-21T12:06:30.946Z,41.20
2023-01-21T12:09:03.616Z,17.67
2023-01-21T12:11:31.974Z,14.23
2023-01-21T12:14:01.664Z,15.10
2023-01-21T12:16:43.330Z,12.80
2023-01-21T12:19:41.225Z,16.93
2023-01-21T12:22:08.835Z,13.37
2023-01-21T12:24:44.319Z,13.80
2023-01-21T12:27:41.384Z,16.30
2023-01-21T12:30:27.288Z,15.60
2023-01-21T12:33:03.048Z,13.43
2023-01-21T12:35:44.189Z,13.93
2023-01-21T12:38:19.658Z,14.30
2023-01-21T12:40:57.976Z,15.37
2023-01-21T12:43:43.394Z,15.20
2023-01-21T12:46:38.465Z,14.97
2023-01-21T12:49:15.708Z,15.60
2023-01-21T12:52:05.141Z,15.07
2023-01-21T12:54:48.568Z,14.47
2023-01-21T12:57:38.193Z,15.20
2023-01-21T13:00:25.561Z,16.10
2023-01-21T13:03:01.692Z,15.23
2023-01-21T13:05:42.263Z,15.73
2023-01-21T13:08:50.373Z,18.60
2023-01-21T13:11:38.749Z,16.00
2023-01-21T13:14:08.729Z,16.03
2023-01-21T13:16:42.628Z,16.53
2023-01-21T13:19:15.263Z,17.67
2023-01-21T13:21:55.466Z,16.93
2023-01-21T13:25:05.061Z,16.70
2023-01-21T13:27:50.385Z,17.33
2023-01-21T13:30:37.067Z,14.57
2023-01-21T13:33:16.045Z,15.20
2023-01-21T13:35:58.181Z,16.60
2023-01-21T13:38:40.431Z,16.20
2023-01-21T13:41:28.058Z,17.30
2023-01-21T13:44:39.336Z,15.07
2023-01-21T13:47:40.458Z,16.53
2023-01-21T13:50:38.632Z,18.77
2023-01-21T13:53:56.898Z,17.67
2023-01-21T13:56:45.287Z,16.37
2023-01-21T13:59:45.805Z,16.27
2023-01-21T14:02:38.542Z,16.37
2023-01-21T14:05:29.051Z,15.40
2023-01-21T14:08:05.905Z,14.40
2023-01-21T14:10:52.171Z,13.97
2023-01-21T14:13:37.451Z,13.30
2023-01-21T14:16:18.014Z,13.90
2023-01-21T14:19:26.384Z,12.43
2023-01-21T14:21:55.994Z,12.90
2023-01-21T14:24:29.375Z,13.40
2023-01-21T14:27:17.963Z,12.53
2023-01-21T14:30:03.869Z,13.57
2023-01-21T14:32:41.464Z,23.00
2023-01-21T14:35:28.521Z,14.23
2023-01-21T14:38:36.960Z,13.33
2023-01-21T14:41:07.089Z,14.97
2023-01-21T14:43:35.888Z,15.07
2023-01-21T14:46:30.808Z,20.13
2023-01-21T14:49:12.590Z,16.27
2023-01-21T14:51:48.443Z,15.60
2023-01-21T14:54:27.261Z,14.53
2023-01-21T14:57:01.784Z,14.90
2023-01-21T14:59:46.453Z,14.80
2023-01-21T15:02:35.905Z,13.83
2023-01-21T15:05:27.738Z,14.17
2023-01-21T15:08:22.186Z,15.50
2023-01-21T15:11:05.798Z,15.67
2023-01-21T15:13:39.311Z,18.10
2023-01-21T15:16:33.010Z,15.53
2023-01-21T15:19:08.851Z,14.60
2023-01-21T15:21:42.508Z,15.63
2023-01-21T15:24:18.529Z,15.67
2023-01-21T15:27:24.489Z,15.03
2023-01-21T15:29:54.401Z,15.43
2023-01-21T15:32:34.865Z,15.80
2023-01-21T15:35:22.328Z,16.73
2023-01-21T15:37:53.136Z,16.57
2023-01-21T15:40:40.224Z,17.70
2023-01-21T15:43:18.996Z,24.03
2023-01-21T15:45:54.181Z,24.43
2023-01-21T15:48:42.519Z,23.07
2023-01-21T15:51:48.744Z,21.37
2023-01-21T15:54:39.608Z,21.80
2023-01-21T15:57:27.544Z,22.90
2023-01-21T16:00:22.336Z,23.17
2023-01-21T16:03:01.864Z,22.37
2023-01-21T16:06:01.512Z,26.83
2023-01-21T16:08:57.520Z,27.77
2023-01-21T16:11:42.880Z,26.67
2023-01-21T16:14:46.356Z,27.27
2023-01-21T16:17:29.322Z,25.37
2023-01-21T16:20:00.616Z,24.50
2023-01-21T16:22:31.033Z,24.83
2023-01-21T16:25:03.404Z,26.87
2023-01-21T16:27:32.663Z,24.93
2023-01-21T16:30:06.531Z,28.53
2023-01-21T16:32:34.088Z,30.43
2023-01-21T16:35:04.782Z,31.70
2023-01-21T16:37:33.089Z,32.97
2023-01-21T16:40:10.121Z,30.43
2023-01-21T16:42:41.629Z,31.50
2023-01-21T16:45:21.402Z,30.20
2023-01-21T16:48:01.302Z,28.70
2023-01-21T16:50:31.027Z,29.20
2023-01-21T16:53:01.550Z,28.53
2023-01-21T16:55:31.221Z,27.03
2023-01-21T16:57:59.921Z,29.37
2023-01-21T17:00:32.432Z,27.37
2023-01-21T17:03:01.012Z,29.30
2023-01-21T17:05:31.991Z,26.80
2023-01-21T17:08:04.738Z,27.33
2023-01-21T17:10:40.601Z,31.77
2023-01-21T17:13:16.253Z,28.73
2023-01-21T17:15:58.585Z,28.93
2023-01-21T17:18:33.038Z,32.23
2023-01-21T17:21:11.555Z,33.03
2023-01-21T17:23:50.627Z,33.40
2023-01-21T17:26:25.453Z,33.33
2023-01-21T17:28:58.094Z,34.70
2023-01-21T17:31:37.529Z,35.67
2023-01-21T17:34:21.097Z,37.03
2023-01-21T17:36:53.140Z,34.77
2023-01-21T17:39:45.503Z,36.63
2023-01-21T17:42:23.111Z,38.07
2023-01-21T17:44:57.403Z,35.97
2023-01-21T17:47:32.160Z,39.47
2023-01-21T17:50:22.424Z,37.67
2023-01-21T17:53:02.016Z,37.07
2023-01-21T17:55:37.602Z,37.90
2023-01-21T17:58:26.537Z,39.07
2023-01-21T18:00:53.834Z,38.80
2023-01-21T18:03:21.180Z,38.17
2023-01-21T18:05:49.627Z,38.33
2023-01-21T18:08:18.083Z,36.37
2023-01-21T18:10:46.802Z,38.10
2023-01-21T18:13:15.545Z,36.93
2023-01-21T18:15:46.743Z,39.70
2023-01-21T18:18:24.725Z,41.10
2023-01-21T18:20:52.171Z,39.57
2023-01-21T18:23:19.972Z,42.40
2023-01-21T18:25:52.663Z,36.97
2023-01-21T18:28:22.457Z,39.53
2023-01-21T18:30:50.889Z,40.17
2023-01-21T18:33:19.347Z,39.87
2023-01-21T18:35:48.602Z,39.00
2023-01-21T18:38:22.628Z,40.20
2023-01-21T18:40:49.748Z,40.20
2023-01-21T18:43:18.702Z,37.97
2023-01-21T18:45:46.152Z,36.73
2023-01-21T18:48:20.673Z,38.87
2023-01-21T18:50:47.927Z,39.63
2023-01-21T18:53:15.325Z,37.20
2023-01-21T18:55:47.691Z,39.30
2023-01-21T18:58:18.103Z,40.93
2023-01-21T19:00:45.428Z,40.67
2023-01-21T19:03:14.488Z,38.90
2023-01-21T19:05:44.637Z,40.03
2023-01-21T19:08:24.977Z,36.53
2023-01-21T19:10:52.717Z,36.97
2023-01-21T19:13:21.153Z,40.10
2023-01-21T19:15:49.278Z,39.53
2023-01-21T19:18:17.706Z,46.23
2023-01-21T19:20:45.078Z,44.73
2023-01-21T19:23:17.135Z,42.37
2023-01-21T19:25:52.201Z,38.97
2023-01-21T19:28:19.607Z,44.20
2023-01-21T19:30:49.538Z,39.87
2023-01-21T19:33:17.062Z,42.30
2023-01-21T19:35:45.976Z,42.60
2023-01-21T19:38:18.090Z,47.30
2023-01-21T19:40:48.735Z,43.27
2023-01-21T19:43:22.229Z,43.63
2023-01-21T19:45:52.833Z,42.60
2023-01-21T19:48:21.747Z,40.67
2023-01-21T19:50:49.570Z,40.07
2023-01-21T19:53:18.617Z,40.47
2023-01-21T19:55:46.982Z,41.33
2023-01-21T19:58:19.960Z,38.00
2023-01-21T20:00:49.570Z,41.27
2023-01-21T20:03:19.260Z,42.47
2023-01-21T20:05:52.388Z,44.47
2023-01-21T20:08:26.758Z,45.50
2023-01-21T20:10:53.981Z,43.17
2023-01-21T20:13:21.708Z,40.60
2023-01-21T20:15:51.385Z,41.57
2023-01-21T20:18:27.530Z,42.77
2023-01-21T20:20:55.430Z,41.67
2023-01-21T20:23:25.362Z,43.87
2023-01-21T20:25:55.998Z,39.93
2023-01-21T20:28:40.266Z,40.97
2023-01-21T20:31:09.324Z,37.83
2023-01-21T20:33:39.637Z,36.93
2023-01-21T20:36:14.440Z,36.90
2023-01-21T20:38:42.382Z,46.47
2023-01-21T20:41:11.840Z,42.43
2023-01-21T20:43:39.577Z,41.70
2023-01-21T20:46:14.526Z,38.87
2023-01-21T20:48:43.952Z,37.23
2023-01-21T20:51:11.841Z,42.50
2023-01-21T20:53:39.354Z,46.10
2023-01-21T20:56:21.739Z,42.00
2023-01-21T20:58:49.209Z,53.63
2023-01-21T21:01:18.590Z,48.23
2023-01-21T21:03:46.345Z,50.00
2023-01-21T21:06:19.292Z,43.60
2023-01-21T21:08:48.468Z,40.87
2023-01-21T21:11:17.502Z,39.43
2023-01-21T21:13:48.593Z,43.23
2023-01-21T21:16:26.410Z,37.70
2023-01-21T21:18:53.735Z,38.67
2023-01-21T21:21:23.718Z,35.00
2023-01-21T21:23:52.646Z,33.63
2023-01-21T21:26:29.601Z,34.97
2023-01-21T21:28:57.910Z,33.53
2023-01-21T21:31:26.933Z,35.83
2023-01-21T21:33:54.854Z,50.73
2023-01-21T21:36:25.868Z,89.30
2023-01-21T21:38:56.013Z,137.00
2023-01-21T21:41:43.399Z,103.73
2023-01-21T21:44:11.416Z,64.93
2023-01-21T21:46:57.949Z,56.43
2023-01-21T21:49:25.224Z,119.43
2023-01-21T21:51:52.570Z,210.20
2023-01-21T21:54:19.977Z,143.97
2023-01-21T21:56:48.426Z,121.50
2023-01-21T21:59:16.088Z,112.57
2023-01-21T22:01:44.143Z,89.50
2023-01-21T22:04:12.161Z,71.00
2023-01-21T22:06:39.570Z,106.07
2023-01-21T22:09:07.414Z,93.57
2023-01-21T22:11:34.979Z,76.07
2023-01-21T22:14:04.403Z,60.43
2023-01-21T22:16:32.752Z,61.27
2023-01-21T22:19:00.878Z,86.87
2023-01-21T22:21:32.066Z,65.67
2023-01-21T22:24:00.292Z,107.13
2023-01-21T22:26:28.803Z,83.87
2023-01-21T22:28:56.189Z,66.53
2023-01-21T22:31:29.080Z,72.47
2023-01-21T22:33:57.586Z,109.90
2023-01-21T22:36:27.535Z,83.40
2023-01-21T22:38:55.758Z,71.37
2023-01-21T22:41:24.823Z,57.93
2023-01-21T22:43:52.524Z,54.57
2023-01-21T22:46:30.281Z,45.17
2023-01-21T22:48:57.733Z,42.60
2023-01-21T22:51:25.049Z,39.93
2023-01-21T22:53:53.545Z,40.10
2023-01-21T22:56:35.397Z,43.50
2023-01-21T22:59:07.300Z,42.13
2023-01-21T23:01:36.881Z,43.40
2023-01-21T23:04:04.258Z,44.93
2023-01-21T23:06:31.432Z,44.60
2023-01-21T23:08:58.612Z,45.93
2023-01-21T23:11:25.847Z,46.97
2023-01-21T23:13:54.763Z,51.70
2023-01-21T23:16:22.543Z,50.10
2023-01-21T23:18:50.032Z,49.57
2023-01-21T23:21:20.091Z,49.97
2023-01-21T23:23:47.368Z,49.20
2023-01-21T23:26:15.206Z,44.73
2023-01-21T23:28:43.443Z,63.50
2023-01-21T23:31:14.298Z,70.90
2023-01-21T23:33:41.996Z,74.73
2023-01-21T23:36:13.160Z,53.67
2023-01-21T23:38:41.655Z,51.27
2023-01-21T23:41:12.424Z,46.30
2023-01-21T23:43:40.268Z,47.53
2023-01-21T23:46:10.994Z,46.90
2023-01-21T23:48:38.391Z,49.07
2023-01-21T23:51:07.748Z,54.13
2023-01-21T23:53:35.433Z,60.80
2023-01-21T23:56:29.078Z,51.13
2023-01-21T23:58:56.299Z,51.13
